createdAt,value
2023-04-08T00:01:43.653Z,100286.28
2023-04-08T00:04:10.619Z,100294.75
2023-04-08T00:06:37.563Z,100293.03
2023-04-08T00:09:04.380Z,100292.22
2023-04-08T00:11:31.238Z,100290.50
2023-04-08T00:13:58.120Z,100298.13
2023-04-08T00:16:24.963Z,100295.59
2023-04-08T00:18:52.168Z,100292.16
2023-04-08T00:21:20.745Z,100290.50
2023-04-08T00:23:47.891Z,100290.50
2023-04-08T00:26:14.913Z,100288.81
2023-04-08T00:28:43.102Z,100287.94
2023-04-08T00:31:10.109Z,100287.94
2023-04-08T00:33:36.984Z,100290.47
2023-04-08T00:36:03.911Z,100287.03
2023-04-08T00:38:31.091Z,100293.81
2023-04-08T00:40:58.550Z,100297.19
2023-04-08T00:43:25.318Z,100295.47
2023-04-08T00:45:52.101Z,100296.31
2023-04-08T00:48:18.903Z,100295.47
2023-04-08T00:50:47.136Z,100294.59
2023-04-08T00:53:19.872Z,100292.06
2023-04-08T00:55:46.626Z,100304.75
2023-04-08T00:58:14.402Z,100293.78
2023-04-08T01:00:52.868Z,100302.22
2023-04-08T01:03:38.918Z,100296.31
2023-04-08T01:06:21.714Z,100301.38
2023-04-08T01:08:51.683Z,100302.22
2023-04-08T01:11:20.201Z,100299.69
2023-04-08T01:13:51.541Z,100296.31
2023-04-08T01:16:19.516Z,100307.28
2023-04-08T01:18:49.480Z,100303.03
2023-04-08T01:21:18.828Z,100304.75
2023-04-08T01:24:10.954Z,100299.69
2023-04-08T01:26:38.860Z,100303.91
2023-04-08T01:29:07.885Z,100299.69
2023-04-08T01:31:38.144Z,100305.59
2023-04-08T01:34:06.613Z,100299.69
2023-04-08T01:36:37.204Z,100305.63
2023-04-08T01:39:06.644Z,100313.22
2023-04-08T01:41:37.425Z,100300.53
2023-04-08T01:44:05.626Z,100307.31
2023-04-08T01:46:33.901Z,100304.78
2023-04-08T01:49:01.436Z,100303.91
2023-04-08T01:51:31.780Z,100312.41
2023-04-08T01:53:58.722Z,100305.63
2023-04-08T01:56:29.544Z,100310.69
2023-04-08T01:59:00.580Z,100304.78
2023-04-08T02:01:30.724Z,100315.78
2023-04-08T02:03:59.339Z,100317.47
2023-04-08T02:06:29.153Z,100315.75
2023-04-08T02:08:56.859Z,100320.84
2023-04-08T02:11:24.989Z,100320.00
2023-04-08T02:13:53.159Z,100314.94
2023-04-08T02:16:24.134Z,100311.53
2023-04-08T02:19:04.700Z,100317.47
2023-04-08T02:21:45.471Z,100321.69
2023-04-08T02:24:14.652Z,100316.59
2023-04-08T02:26:45.547Z,100323.38
2023-04-08T02:29:16.107Z,100322.53
2023-04-08T02:31:44.496Z,100329.31
2023-04-08T02:34:13.696Z,100320.00
2023-04-08T02:36:42.798Z,100327.63
2023-04-08T02:39:09.542Z,100326.78
2023-04-08T02:41:36.268Z,100323.38
2023-04-08T02:44:03.100Z,100328.50
2023-04-08T02:46:29.924Z,100327.63
2023-04-08T02:48:56.643Z,100329.34
2023-04-08T02:51:23.331Z,100325.13
2023-04-08T02:53:50.177Z,100330.22
2023-04-08T02:56:16.917Z,100327.69
2023-04-08T02:58:43.678Z,100320.91
2023-04-08T03:01:10.643Z,100324.31
2023-04-08T03:03:37.715Z,100328.53
2023-04-08T03:06:04.563Z,100322.63
2023-04-08T03:08:31.306Z,100324.31
2023-04-08T03:10:58.061Z,100326.00
2023-04-08T03:13:24.799Z,100330.22
2023-04-08T03:15:51.698Z,100325.16
2023-04-08T03:18:18.504Z,100323.50
2023-04-08T03:20:45.214Z,100322.63
2023-04-08T03:23:11.905Z,100334.47
2023-04-08T03:25:38.652Z,100329.41
2023-04-08T03:28:05.485Z,100326.88
2023-04-08T03:30:32.425Z,100328.56
2023-04-08T03:32:59.231Z,100326.03
2023-04-08T03:35:26.179Z,100325.16
2023-04-08T03:37:52.985Z,100328.53
2023-04-08T03:40:19.812Z,100330.22
2023-04-08T03:42:46.873Z,100336.19
2023-04-08T03:45:13.576Z,100326.84
2023-04-08T03:47:41.175Z,100334.47
2023-04-08T03:50:08.625Z,100325.16
2023-04-08T03:52:35.413Z,100331.06
2023-04-08T03:55:02.345Z,100334.47
2023-04-08T03:57:29.064Z,100333.59
2023-04-08T03:59:55.782Z,100330.22
2023-04-08T04:02:22.644Z,100336.13
2023-04-08T04:04:49.427Z,100336.13
2023-04-08T04:07:16.439Z,100335.28
2023-04-08T04:09:43.181Z,100335.28
2023-04-08T04:12:09.893Z,100344.59
2023-04-08T04:14:36.603Z,100339.50
2023-04-08T04:17:03.326Z,100336.97
2023-04-08T04:19:31.671Z,100338.63
2023-04-08T04:21:58.406Z,100336.97
2023-04-08T04:24:25.171Z,100338.63
2023-04-08T04:26:51.867Z,100341.19
2023-04-08T04:29:18.602Z,100338.69
2023-04-08T04:31:46.258Z,100337.84
2023-04-08T04:34:13.084Z,100340.38
2023-04-08T04:36:39.798Z,100345.47
2023-04-08T04:39:06.510Z,100344.59
2023-04-08T04:41:35.232Z,100358.13
2023-04-08T04:44:02.014Z,100348.00
2023-04-08T04:46:28.805Z,100357.28
2023-04-08T04:48:55.620Z,100360.69
2023-04-08T04:51:22.322Z,100356.44
2023-04-08T04:53:49.923Z,100361.50
2023-04-08T04:56:16.653Z,100359.81
2023-04-08T04:58:43.346Z,100357.31
2023-04-08T05:01:10.203Z,100361.50
2023-04-08T05:03:37.025Z,100366.59
2023-04-08T05:06:03.972Z,100372.50
2023-04-08T05:08:31.022Z,100377.56
2023-04-08T05:10:59.496Z,100379.25
2023-04-08T05:13:26.340Z,100382.63
2023-04-08T05:15:53.079Z,100385.19
2023-04-08T05:18:19.874Z,100381.81
2023-04-08T05:20:46.844Z,100393.66
2023-04-08T05:23:13.606Z,100380.97
2023-04-08T05:25:40.385Z,100386.03
2023-04-08T05:28:07.152Z,100392.84
2023-04-08T05:30:33.860Z,100392.84
2023-04-08T05:33:00.985Z,100386.88
2023-04-08T05:35:29.009Z,100386.09
2023-04-08T05:37:55.996Z,100387.75
2023-04-08T05:40:22.741Z,100407.22
2023-04-08T05:42:49.562Z,100395.41
2023-04-08T05:45:16.583Z,100395.41
2023-04-08T05:47:43.448Z,100403.03
2023-04-08T05:50:11.370Z,100403.91
2023-04-08T05:52:44.874Z,100406.44
2023-04-08T05:55:13.760Z,100408.16
2023-04-08T05:57:41.204Z,100406.47
2023-04-08T06:00:10.592Z,100407.31
2023-04-08T06:02:38.502Z,100415.81
2023-04-08T06:05:06.540Z,100410.72
2023-04-08T06:07:33.860Z,100415.81
2023-04-08T06:10:00.615Z,100418.38
2023-04-08T06:12:27.332Z,100410.75
2023-04-08T06:14:56.066Z,100414.13
2023-04-08T06:17:23.200Z,100415.00
2023-04-08T06:19:50.141Z,100411.63
2023-04-08T06:22:16.843Z,100418.41
2023-04-08T06:24:43.540Z,100421.78
2023-04-08T06:27:10.340Z,100429.41
2023-04-08T06:29:37.161Z,100431.97
2023-04-08T06:32:04.029Z,100430.28
2023-04-08T06:34:30.757Z,100440.44
2023-04-08T06:36:57.596Z,100433.69
2023-04-08T06:39:24.545Z,100443.03
2023-04-08T06:41:52.310Z,100446.44
2023-04-08T06:44:19.027Z,100443.03
2023-04-08T06:46:45.732Z,100450.66
2023-04-08T06:49:13.188Z,100437.09
2023-04-08T06:51:39.883Z,100443.06
2023-04-08T06:54:06.646Z,100444.75
2023-04-08T06:56:33.363Z,100449.88
2023-04-08T06:59:00.166Z,100443.09
2023-04-08T07:01:26.973Z,100447.31
2023-04-08T07:03:53.732Z,100456.66
2023-04-08T07:06:20.580Z,100460.06
2023-04-08T07:08:47.303Z,100465.16
2023-04-08T07:11:14.107Z,100467.72
2023-04-08T07:13:40.793Z,100473.66
2023-04-08T07:16:07.768Z,100475.34
2023-04-08T07:18:34.528Z,100473.69
2023-04-08T07:21:01.766Z,100475.38
2023-04-08T07:23:28.523Z,100482.16
2023-04-08T07:25:55.302Z,100483.00
2023-04-08T07:28:22.168Z,100483.88
2023-04-08T07:30:48.896Z,100488.94
2023-04-08T07:33:16.090Z,100489.78
2023-04-08T07:35:43.225Z,100488.94
2023-04-08T07:38:11.471Z,100493.19
2023-04-08T07:40:38.218Z,100489.78
2023-04-08T07:43:04.925Z,100487.25
2023-04-08T07:45:31.765Z,100499.13
2023-04-08T07:47:58.557Z,100500.78
2023-04-08T07:50:25.314Z,100493.19
2023-04-08T07:52:53.263Z,100499.97
2023-04-08T07:55:20.210Z,100510.97
2023-04-08T07:57:47.187Z,100511.84
2023-04-08T08:00:20.718Z,100510.22
2023-04-08T08:02:48.802Z,100507.66
2023-04-08T08:05:15.757Z,100517.84
2023-04-08T08:07:42.631Z,100510.22
2023-04-08T08:10:11.221Z,100513.63
2023-04-08T08:12:38.047Z,100523.00
2023-04-08T08:15:05.652Z,100513.63
2023-04-08T08:17:33.605Z,100517.78
2023-04-08T08:20:01.191Z,100516.81
2023-04-08T08:22:27.909Z,100515.88
2023-04-08T08:24:58.015Z,100522.63
2023-04-08T08:27:25.152Z,100534.53
2023-04-08T08:29:52.566Z,100527.66
2023-04-08T08:32:19.520Z,100525.94
2023-04-08T08:34:46.210Z,100536.97
2023-04-08T08:37:12.942Z,100531.84
2023-04-08T08:39:39.651Z,100540.28
2023-04-08T08:42:06.509Z,100547.09
2023-04-08T08:44:34.354Z,100541.13
2023-04-08T08:47:01.220Z,100542.81
2023-04-08T08:49:28.063Z,100548.75
2023-04-08T08:51:55.805Z,100546.19
2023-04-08T08:54:23.104Z,100542.78
2023-04-08T08:56:49.871Z,100542.69
2023-04-08T08:59:16.565Z,100549.47
2023-04-08T09:01:43.819Z,100551.09
2023-04-08T09:04:20.379Z,100551.84
2023-04-08T09:06:52.542Z,100561.09
2023-04-08T09:09:19.296Z,100558.44
2023-04-08T09:11:47.242Z,100554.03
2023-04-08T09:14:25.470Z,100555.47
2023-04-08T09:16:53.517Z,100554.03
2023-04-08T09:19:21.021Z,100551.75
2023-04-08T09:22:08.782Z,100549.09
2023-04-08T09:24:37.247Z,100552.59
2023-04-08T09:27:06.052Z,100544.91
2023-04-08T09:29:36.399Z,100551.47
2023-04-08T09:32:04.305Z,100552.06
2023-04-08T09:34:34.059Z,100548.44
2023-04-08T09:37:00.939Z,100547.47
2023-04-08T09:39:27.706Z,100549.91
2023-04-08T09:42:01.258Z,100542.63
2023-04-08T09:44:30.484Z,100546.75
2023-04-08T09:47:19.167Z,100552.63
2023-04-08T09:49:56.238Z,100546.97
2023-04-08T09:52:33.395Z,100548.78
2023-04-08T09:55:05.690Z,100545.00
2023-04-08T09:57:44.983Z,100545.59
2023-04-08T10:00:16.177Z,100546.06
2023-04-08T10:02:49.616Z,100547.88
2023-04-08T10:05:18.467Z,100554.38
2023-04-08T10:07:45.812Z,100549.31
2023-04-08T10:10:13.191Z,100546.97
2023-04-08T10:12:41.060Z,100545.44
2023-04-08T10:15:47.530Z,100540.81
2023-04-08T10:18:14.654Z,100539.28
2023-04-08T10:20:43.033Z,100538.13
2023-04-08T10:23:15.645Z,100548.78
2023-04-08T10:25:43.191Z,100547.84
2023-04-08T10:28:18.759Z,100535.72
2023-04-08T10:30:50.794Z,100539.06
2023-04-08T10:33:34.771Z,100531.78
2023-04-08T10:36:11.310Z,100532.56
2023-04-08T10:38:40.031Z,100532.47
2023-04-08T10:41:06.925Z,100530.13
2023-04-08T10:43:35.199Z,100528.13
2023-04-08T10:46:03.065Z,100529.47
2023-04-08T10:48:29.934Z,100522.19
2023-04-08T10:51:00.160Z,100525.34
2023-04-08T10:53:33.487Z,100523.22
2023-04-08T10:56:08.461Z,100516.63
2023-04-08T10:58:36.759Z,100520.84
2023-04-08T11:01:09.577Z,100519.00
2023-04-08T11:03:37.433Z,100520.84
2023-04-08T11:06:05.386Z,100518.38
2023-04-08T11:08:34.354Z,100515.91
2023-04-08T11:11:02.637Z,100515.25
2023-04-08T11:13:30.743Z,100518.09
2023-04-08T11:16:00.753Z,100512.56
2023-04-08T11:18:28.559Z,100517.75
2023-04-08T11:20:56.102Z,100517.88
2023-04-08T11:23:26.026Z,100522.31
2023-04-08T11:25:53.614Z,100510.44
2023-04-08T11:28:21.267Z,100516.53
2023-04-08T11:30:49.581Z,100517.22
2023-04-08T11:33:16.669Z,100520.31
2023-04-08T11:35:44.343Z,100518.97
2023-04-08T11:38:12.032Z,100524.41
2023-04-08T11:40:39.159Z,100515.16
2023-04-08T11:43:15.347Z,100510.06
2023-04-08T11:45:42.539Z,100521.34
2023-04-08T11:48:12.304Z,100507.75
2023-04-08T11:50:39.782Z,100509.63
2023-04-08T11:53:26.133Z,100512.53
2023-04-08T11:55:52.909Z,100518.72
2023-04-08T11:58:19.634Z,100511.84
2023-04-08T12:00:46.309Z,100517.84
2023-04-08T12:03:13.790Z,100518.84
2023-04-08T12:05:41.248Z,100512.00
2023-04-08T12:08:08.002Z,100515.78
2023-04-08T12:10:34.838Z,100519.56
2023-04-08T12:13:01.543Z,100524.16
2023-04-08T12:15:28.366Z,100516.81
2023-04-08T12:17:55.766Z,100519.44
2023-04-08T12:20:22.560Z,100521.13
2023-04-08T12:22:49.270Z,100518.69
2023-04-08T12:25:16.179Z,100518.13
2023-04-08T12:27:43.135Z,100521.78
2023-04-08T12:30:10.805Z,100520.41
2023-04-08T12:32:38.067Z,100522.50
2023-04-08T12:35:05.384Z,100519.50
2023-04-08T12:37:33.378Z,100515.59
2023-04-08T12:40:00.782Z,100524.44
2023-04-08T12:42:27.887Z,100515.94
2023-04-08T12:44:54.752Z,100512.31
2023-04-08T12:47:22.262Z,100519.69
2023-04-08T12:49:50.507Z,100522.88
2023-04-08T12:52:17.594Z,100517.00
2023-04-08T12:54:44.996Z,100515.53
2023-04-08T12:57:12.430Z,100512.34
2023-04-08T12:59:40.109Z,100512.59
2023-04-08T13:02:07.887Z,100510.53
2023-04-08T13:04:35.394Z,100512.69
2023-04-08T13:07:02.276Z,100511.41
2023-04-08T13:09:30.495Z,100504.78
2023-04-08T13:11:58.085Z,100516.06
2023-04-08T13:14:24.962Z,100515.34
2023-04-08T13:16:52.231Z,100516.44
2023-04-08T13:19:19.129Z,100514.16
2023-04-08T13:21:46.964Z,100520.41
2023-04-08T13:24:13.670Z,100515.66
2023-04-08T13:26:40.654Z,100512.47
2023-04-08T13:29:07.397Z,100513.63
2023-04-08T13:31:34.244Z,100519.06
2023-04-08T13:34:01.051Z,100509.09
2023-04-08T13:36:28.944Z,100507.75
2023-04-08T13:38:56.589Z,100509.78
2023-04-08T13:41:23.407Z,100507.59
2023-04-08T13:43:50.416Z,100509.63
2023-04-08T13:46:18.048Z,100515.03
2023-04-08T13:48:44.942Z,100505.94
2023-04-08T13:51:11.646Z,100511.38
2023-04-08T13:53:38.348Z,100504.75
2023-04-08T13:56:05.331Z,100504.16
2023-04-08T13:58:32.104Z,100512.91
2023-04-08T14:00:58.944Z,100507.13
2023-04-08T14:03:26.369Z,100504.75
2023-04-08T14:05:53.628Z,100506.59
2023-04-08T14:08:25.318Z,100509.31
2023-04-08T14:10:56.709Z,100507.75
2023-04-08T14:13:24.000Z,100510.44
2023-04-08T14:15:52.131Z,100506.34
2023-04-08T14:18:19.018Z,100501.34
2023-04-08T14:20:45.735Z,100498.88
2023-04-08T14:23:13.485Z,100500.72
2023-04-08T14:25:40.761Z,100492.22
2023-04-08T14:28:07.981Z,100491.41
2023-04-08T14:30:36.173Z,100496.53
2023-04-08T14:33:05.188Z,100489.81
2023-04-08T14:35:32.175Z,100493.19
2023-04-08T14:37:59.444Z,100505.97
2023-04-08T14:40:26.386Z,100491.47
2023-04-08T14:42:53.113Z,100496.50
2023-04-08T14:45:19.888Z,100492.22
2023-04-08T14:47:46.673Z,100498.16
2023-04-08T14:50:13.412Z,100495.56
2023-04-08T14:52:40.563Z,100495.56
2023-04-08T14:55:07.765Z,100502.38
2023-04-08T14:57:34.495Z,100504.13
2023-04-08T15:00:02.279Z,100506.72
2023-04-08T15:02:29.229Z,100512.75
2023-04-08T15:04:56.246Z,100518.78
2023-04-08T15:07:23.636Z,100513.72
2023-04-08T15:09:50.333Z,100520.59
2023-04-08T15:12:17.068Z,100519.81
2023-04-08T15:14:43.790Z,100526.69
2023-04-08T15:17:10.606Z,100515.66
2023-04-08T15:19:37.337Z,100511.44
2023-04-08T15:22:04.101Z,100519.19
2023-04-08T15:24:30.864Z,100513.28
2023-04-08T15:26:57.617Z,100519.31
2023-04-08T15:29:24.581Z,100515.97
2023-04-08T15:31:52.468Z,100516.06
2023-04-08T15:34:19.186Z,100513.56
2023-04-08T15:36:47.323Z,100510.28
2023-04-08T15:39:14.050Z,100508.63
2023-04-08T15:41:40.876Z,100513.84
2023-04-08T15:44:07.609Z,100520.69
2023-04-08T15:46:36.804Z,100519.81
2023-04-08T15:49:04.247Z,100513.91
2023-04-08T15:51:32.152Z,100519.84
2023-04-08T15:53:59.061Z,100513.03
2023-04-08T15:56:26.988Z,100513.06
2023-04-08T15:58:54.024Z,100507.94
2023-04-08T16:01:21.330Z,100506.25
2023-04-08T16:03:48.613Z,100511.38
2023-04-08T16:06:15.543Z,100512.25
2023-04-08T16:08:43.383Z,100508.06
2023-04-08T16:11:10.115Z,100510.69
2023-04-08T16:13:39.116Z,100515.84
2023-04-08T16:16:05.968Z,100518.41
2023-04-08T16:18:32.673Z,100516.75
2023-04-08T16:20:59.576Z,100515.91
2023-04-08T16:23:26.483Z,100515.91
2023-04-08T16:25:53.203Z,100515.91
2023-04-08T16:28:19.896Z,100515.94
2023-04-08T16:30:47.758Z,100517.66
2023-04-08T16:33:14.722Z,100516.81
2023-04-08T16:35:41.555Z,100515.13
2023-04-08T16:38:08.327Z,100521.06
2023-04-08T16:40:35.344Z,100514.28
2023-04-08T16:43:04.714Z,100513.47
2023-04-08T16:45:35.069Z,100516.09
2023-04-08T16:48:01.870Z,100514.44
2023-04-08T16:50:28.798Z,100512.78
2023-04-08T16:52:55.613Z,100518.75
2023-04-08T16:55:22.356Z,100518.78
2023-04-08T16:57:49.274Z,100513.66
2023-04-08T17:00:18.708Z,100523.03
2023-04-08T17:02:47.463Z,100517.91
2023-04-08T17:05:14.455Z,100520.47
2023-04-08T17:07:41.198Z,100517.06
2023-04-08T17:10:08.722Z,100521.34
2023-04-08T17:12:36.250Z,100525.63
2023-04-08T17:15:03.772Z,100519.72
2023-04-08T17:17:30.730Z,100529.09
2023-04-08T17:19:57.649Z,100519.75
2023-04-08T17:22:24.418Z,100524.03
2023-04-08T17:24:51.143Z,100532.56
2023-04-08T17:27:17.924Z,100525.78
2023-04-08T17:29:44.963Z,100532.63
2023-04-08T17:32:12.455Z,100533.50
2023-04-08T17:34:40.844Z,100527.56
2023-04-08T17:37:08.084Z,100535.25
2023-04-08T17:39:40.446Z,100529.34
2023-04-08T17:42:08.263Z,100541.28
2023-04-08T17:44:35.111Z,100532.78
2023-04-08T17:47:04.879Z,100540.44
2023-04-08T17:49:31.598Z,100534.53
2023-04-08T17:51:58.317Z,100530.28
2023-04-08T17:54:25.042Z,100547.28
2023-04-08T17:56:51.759Z,100541.34
2023-04-08T17:59:18.513Z,100545.59
2023-04-08T18:01:45.505Z,100539.69
2023-04-08T18:04:13.359Z,100544.78
2023-04-08T18:06:40.293Z,100549.06
2023-04-08T18:09:07.020Z,100554.19
2023-04-08T18:11:33.699Z,100545.72
2023-04-08T18:14:00.402Z,100555.91
2023-04-08T18:16:27.151Z,100561.03
2023-04-08T18:18:54.007Z,100553.41
2023-04-08T18:21:22.028Z,100554.28
2023-04-08T18:23:50.337Z,100560.22
2023-04-08T18:26:17.440Z,100567.88
2023-04-08T18:28:44.413Z,100560.25
2023-04-08T18:31:11.261Z,100564.47
2023-04-08T18:33:39.044Z,100562.81
2023-04-08T18:36:08.294Z,100556.84
2023-04-08T18:38:36.226Z,100572.13
2023-04-08T18:41:06.885Z,100565.34
2023-04-08T18:43:34.359Z,100563.66
2023-04-08T18:46:01.195Z,100569.59
2023-04-08T18:48:28.033Z,100581.47
2023-04-08T18:50:54.793Z,100576.41
2023-04-08T18:53:22.513Z,100573.03
2023-04-08T18:55:49.226Z,100576.44
2023-04-08T18:58:15.968Z,100584.91
2023-04-08T19:00:43.698Z,100580.69
2023-04-08T19:03:11.134Z,100574.75
2023-04-08T19:05:38.727Z,100576.44
2023-04-08T19:08:06.425Z,100579.84
2023-04-08T19:10:34.450Z,100579.84
2023-04-08T19:13:01.625Z,100575.63
2023-04-08T19:15:29.020Z,100584.13
2023-04-08T19:17:56.432Z,100581.56
2023-04-08T19:20:23.567Z,100588.34
2023-04-08T19:22:50.410Z,100590.00
2023-04-08T19:25:17.770Z,100595.97
2023-04-08T19:27:45.816Z,100592.56
2023-04-08T19:30:13.160Z,100595.13
2023-04-08T19:32:40.376Z,100599.41
2023-04-08T19:35:11.129Z,100603.63
2023-04-08T19:37:37.831Z,100594.28
2023-04-08T19:40:06.773Z,100609.53
2023-04-08T19:42:33.546Z,100604.47
2023-04-08T19:45:03.584Z,100608.69
2023-04-08T19:47:30.351Z,100611.22
2023-04-08T19:49:58.175Z,100609.53
2023-04-08T19:52:25.410Z,100615.47
2023-04-08T19:54:52.355Z,100607.84
2023-04-08T19:57:20.504Z,100607.81
2023-04-08T19:59:48.645Z,100612.06
2023-04-08T20:02:15.819Z,100613.72
2023-04-08T20:04:42.786Z,100613.75
2023-04-08T20:07:09.666Z,100609.47
2023-04-08T20:09:36.554Z,100611.16
2023-04-08T20:12:05.763Z,100618.78
2023-04-08T20:14:33.985Z,100622.16
2023-04-08T20:17:00.998Z,100627.22
2023-04-08T20:19:28.257Z,100628.94
2023-04-08T20:21:55.006Z,100634.81
2023-04-08T20:24:22.498Z,100629.75
2023-04-08T20:26:49.367Z,100636.66
2023-04-08T20:29:16.496Z,100633.22
2023-04-08T20:31:44.640Z,100635.72
2023-04-08T20:34:11.641Z,100633.16
2023-04-08T20:36:39.767Z,100636.53
2023-04-08T20:39:10.796Z,100634.00
2023-04-08T20:41:38.259Z,100638.22
2023-04-08T20:44:10.304Z,100632.28
2023-04-08T20:46:38.105Z,100630.56
2023-04-08T20:49:05.796Z,100629.75
2023-04-08T20:51:33.618Z,100629.75
2023-04-08T20:54:00.383Z,100626.31
2023-04-08T20:56:27.316Z,100632.25
2023-04-08T20:58:54.415Z,100621.25
2023-04-08T21:01:22.068Z,100624.66
2023-04-08T21:03:49.149Z,100628.88
2023-04-08T21:06:20.434Z,100628.88
2023-04-08T21:08:48.000Z,100628.03
2023-04-08T21:11:15.578Z,100626.31
2023-04-08T21:13:43.073Z,100628.03
2023-04-08T21:16:09.906Z,100631.44
2023-04-08T21:18:39.583Z,100631.44
2023-04-08T21:21:06.637Z,100620.44
2023-04-08T21:23:33.395Z,100619.56
2023-04-08T21:26:02.663Z,100621.28
2023-04-08T21:28:30.276Z,100610.25
2023-04-08T21:31:07.436Z,100619.53
2023-04-08T21:33:34.190Z,100613.63
2023-04-08T21:36:00.976Z,100608.50
2023-04-08T21:38:28.120Z,100608.50
2023-04-08T21:40:54.840Z,100616.94
2023-04-08T21:43:21.850Z,100616.06
2023-04-08T21:45:48.697Z,100615.19
2023-04-08T21:48:15.640Z,100621.94
2023-04-08T21:50:42.358Z,100614.31
2023-04-08T21:53:09.079Z,100615.97
2023-04-08T21:55:35.821Z,100607.50
2023-04-08T21:58:02.628Z,100617.69
2023-04-08T22:00:30.188Z,100608.34
2023-04-08T22:02:57.053Z,100610.00
2023-04-08T22:05:23.847Z,100613.38
2023-04-08T22:07:50.628Z,100614.22
2023-04-08T22:10:18.019Z,100609.09
2023-04-08T22:12:44.750Z,100611.56
2023-04-08T22:15:11.629Z,100609.84
2023-04-08T22:17:38.402Z,100604.72
2023-04-08T22:20:06.074Z,100613.16
2023-04-08T22:22:32.962Z,100616.53
2023-04-08T22:24:59.669Z,100616.47
2023-04-08T22:27:28.937Z,100617.31
2023-04-08T22:29:55.649Z,100608.81
2023-04-08T22:32:22.382Z,100613.88
2023-04-08T22:34:49.189Z,100608.81
2023-04-08T22:37:16.146Z,100602.91
2023-04-08T22:39:42.855Z,100607.16
2023-04-08T22:42:09.570Z,100603.78
2023-04-08T22:44:36.318Z,100603.84
2023-04-08T22:47:03.050Z,100607.22
2023-04-08T22:49:29.780Z,100604.69
2023-04-08T22:51:56.501Z,100597.94
2023-04-08T22:54:23.250Z,100603.88
2023-04-08T22:56:50.327Z,100602.19
2023-04-08T22:59:17.081Z,100603.88
2023-04-08T23:01:45.052Z,100601.31
2023-04-08T23:04:11.895Z,100599.59
2023-04-08T23:06:38.636Z,100600.41
2023-04-08T23:09:05.358Z,100598.66
2023-04-08T23:11:32.094Z,100591.03
2023-04-08T23:13:58.856Z,100585.88
2023-04-08T23:16:25.798Z,100587.59
2023-04-08T23:18:52.807Z,100596.88
2023-04-08T23:21:20.867Z,100590.06
2023-04-08T23:23:47.590Z,100589.16
2023-04-08T23:26:19.144Z,100589.16
2023-04-08T23:28:46.040Z,100601.81
2023-04-08T23:31:13.409Z,100592.47
2023-04-08T23:33:40.200Z,100588.19
2023-04-08T23:36:11.843Z,100594.06
2023-04-08T23:38:38.702Z,100594.81
2023-04-08T23:41:06.843Z,100595.63
2023-04-08T23:43:34.431Z,100595.56
2023-04-08T23:46:01.212Z,100595.50
2023-04-08T23:48:28.039Z,100588.69
2023-04-08T23:50:55.967Z,100592.03
2023-04-08T23:53:22.727Z,100592.84
2023-04-08T23:55:49.473Z,100592.78
2023-04-08T23:58:16.224Z,100598.66
